ENG CAT
Escuela de Pilotos
Teléfono 972234126 972 23 41 26
 

Información meteorológica aeronáutica

 

En este apartado aparece la información meteorológica aeronáutica que es utilizada en las prácticas de los alumnos de la Escuela de Pilotos de nuestro centro durante su formación, por lo que puede no ser actual y se debería utilizar por su propia cuenta y riesgo. AERBRAVA no se hace responsable de su uso.

 

TIEMPO ACTUAL

Cargando..

sat24.com

Servei Meteorològic de Catalunya

 

LEGE 211630Z 20012KT 170V230 9999 FEW040 BKN070 15/05 Q1014
LEGE 211600Z 20012KT 170V240 9999 FEW040 BKN070 16/05 Q1014
LEGE 211530Z 19012KT 160V220 9999 SCT040 17/05 Q1014
LEGE 211500Z 19012KT 170V230 9999 FEW040 17/04 Q1014
LEGE 211430Z 20013KT 160V230 9999 FEW040 17/05 Q1014
LEGE 211400Z 20013KT 160V230 9999 FEW040 18/05 Q1014
LEGE 211330Z 19012KT 160V220 9999 FEW040 18/04 Q1014
LEGE 211300Z 18010KT 150V210 9999 FEW040 19/04 Q1014
LEGE 211230Z 15004KT 9999 FEW040 19/03 Q1014
LEGE 211200Z 18006KT 140V310 9999 FEW038 18/04 Q1014
LEGE 211130Z 17004KT 090V260 9999 FEW038 18/04 Q1015

TAF LEGE 211100Z 2112/2212 VRB03KT 9999 FEW040 TX21/2113Z TN06/2206Z
BECMG 2112/2114 19010KT
BECMG 2118/2120 VRB03KT
TEMPO 2200/2207 01010KT 4000 SHRA FEW040TCU

Aviation Weather

 
Aerbrava en el facebook Aerbrava en el twitter Aerbrava instagram
No utilizamos cookies, no recabamos ni cedemos datos de carácter personal de los usuarios. Click AQUÍ, para más información sobre la Política de Cookies.

¡html Vàlid! ¡CSS Vàlid!